Time;durP1;ratioP1;P1;durP2;ratioP2;P2;SDS_P1;SDS_P2;PMS_P1;PMS_P2;Temp;Humidity;BMP_temperature;BMP_pressure;BME280_temperature;BME280_humidity;BME280_pressure;Samples;Min_cycle;Max_cycle;Signal;HPM_P1;HPM_P2
2022/10/18 00:01:03;;;;;;;6.35;4.78;;;;;;;25.34;42.23;102020.91;5033063;28;20360;-57
2022/10/18 00:03:32;;;;;;;7.15;5.22;;;;;;;25.36;41.81;102012.16;5032936;28;20018;-56
2022/10/18 00:06:00;;;;;;;7.47;5.55;;;;;;;25.31;42.44;102018.22;5032896;28;20505;-57
2022/10/18 00:08:29;;;;;;;6.88;5.05;;;;;;;25.29;42.12;102019.94;5032128;28;20025;-58
2022/10/18 00:10:57;;;;;;;6.32;4.82;;;;;;;25.24;42.27;102003.16;5032978;28;20411;-57
2022/10/18 00:13:26;;;;;;;8.15;5.07;;;;;;;25.34;42.14;102009.53;5032912;28;20029;-57
2022/10/18 00:15:57;;;;;;;5.80;4.57;;;;;;;25.27;42.15;102016.38;5032736;28;20041;-58
2022/10/18 00:18:26;;;;;;;5.50;4.40;;;;;;;25.34;42.15;102014.78;5032726;28;20026;-58
2022/10/18 00:21:14;;;;;;;6.20;4.18;;;;;;;25.26;42.32;102009.34;5032466;28;20052;-58
2022/10/18 00:23:43;;;;;;;5.35;4.05;;;;;;;25.30;42.37;102005.94;5029075;28;20040;-58
2022/10/18 00:26:14;;;;;;;4.85;3.72;;;;;;;25.28;42.46;102004.09;5031628;28;20025;-58
2022/10/18 00:28:43;;;;;;;5.03;3.83;;;;;;;25.29;42.22;102004.16;5032864;28;20025;-58
2022/10/18 00:31:23;;;;;;;4.88;3.70;;;;;;;25.28;42.36;102004.09;5031396;28;20113;-59
2022/10/18 00:33:53;;;;;;;5.78;3.95;;;;;;;25.30;42.43;102015.53;5032598;28;20036;-58
2022/10/18 00:36:22;;;;;;;6.95;4.25;;;;;;;25.30;42.15;102026.94;5032526;28;20056;-57
2022/10/18 00:38:51;;;;;;;4.55;3.67;;;;;;;25.31;41.95;102022.56;5032825;28;20030;-58
2022/10/18 00:41:22;;;;;;;4.43;3.55;;;;;;;25.30;42.10;102034.84;5032897;28;20056;-57
2022/10/18 00:43:53;;;;;;;5.13;3.95;;;;;;;25.31;42.10;102026.09;5032798;28;20033;-58
2022/10/18 00:46:22;;;;;;;4.90;3.65;;;;;;;25.32;42.13;102017.34;5031408;28;20068;-58
2022/10/18 00:48:50;;;;;;;4.40;3.65;;;;;;;25.33;41.72;102020.88;5032473;28;20029;-58
2022/10/18 00:51:20;;;;;;;4.45;3.53;;;;;;;25.28;42.01;102028.66;5032549;28;20072;-58
2022/10/18 00:53:49;;;;;;;4.22;3.17;;;;;;;25.27;42.21;102021.63;5015127;28;20061;-58
2022/10/18 00:56:18;;;;;;;5.25;3.38;;;;;;;25.27;42.15;102029.50;5032416;28;20040;-58
2022/10/18 00:58:49;;;;;;;4.30;3.08;;;;;;;25.26;42.06;102032.06;5032863;28;20017;-57
2022/10/18 01:01:17;;;;;;;6.38;3.20;;;;;;;25.29;42.09;102024.28;5032422;28;20090;-57
2022/10/18 01:03:46;;;;;;;4.57;2.80;;;;;;;25.31;42.11;102017.31;5031155;28;20112;-58
2022/10/18 01:06:14;;;;;;;4.00;3.03;;;;;;;25.32;42.09;102017.34;5031132;28;20116;-55
2022/10/18 01:09:03;;;;;;;4.18;3.10;;;;;;;25.29;42.27;102024.28;5032607;28;20028;-58
2022/10/18 01:12:02;;;;;;;3.78;3.13;;;;;;;25.24;42.14;102018.00;5014901;28;20059;-56
2022/10/18 01:14:36;;;;;;;3.65;2.90;;;;;;;25.26;42.27;102013.69;5025573;28;20489;-54
2022/10/18 01:17:10;;;;;;;3.70;2.78;;;;;;;25.22;42.18;102011.88;5032271;28;20091;-56
2022/10/18 01:20:16;;;;;;;3.65;2.67;;;;;;;25.23;41.93;102013.63;5032176;28;20049;-58
2022/10/18 01:22:48;;;;;;;4.35;3.00;;;;;;;25.25;41.98;102010.19;5035313;28;20048;-54
2022/10/18 01:25:28;;;;;;;3.95;2.72;;;;;;;25.21;42.10;102010.09;5018534;28;20108;-57
2022/10/18 01:28:06;;;;;;;4.00;2.67;;;;;;;25.25;42.05;102018.06;5035899;28;20021;-57
2022/10/18 01:31:07;;;;;;;3.72;2.70;;;;;;;25.26;41.89;102017.22;5035542;28;20399;-56
2022/10/18 01:33:44;;;;;;;3.40;2.55;;;;;;;25.28;41.94;102018.16;5031830;28;20046;-57
2022/10/18 01:36:27;;;;;;;3.50;2.15;;;;;;;25.26;41.85;102014.59;5018174;28;20030;-58
2022/10/18 01:38:57;;;;;;;3.30;2.30;;;;;;;25.31;41.78;102002.47;5035574;28;20033;-57
2022/10/18 01:41:27;;;;;;;3.83;2.30;;;;;;;25.31;41.50;102007.72;5035648;28;20095;-57
2022/10/18 01:43:59;;;;;;;3.92;2.20;;;;;;;25.27;41.68;102000.59;5035208;28;20060;-57
2022/10/18 01:46:26;;;;;;;2.63;2.00;;;;;;;25.20;41.91;101998.69;5035497;28;20094;-58
2022/10/18 01:48:55;;;;;;;3.15;2.30;;;;;;;25.25;41.82;101998.78;5017937;28;20025;-58
2022/10/18 01:51:28;;;;;;;3.55;2.17;;;;;;;25.24;41.84;102000.53;5034179;28;20029;-58
2022/10/18 01:53:57;;;;;;;2.70;2.10;;;;;;;25.30;41.78;101999.78;5035520;28;20021;-57
2022/10/18 01:56:30;;;;;;;2.42;1.90;;;;;;;25.25;41.98;101988.28;5035274;28;20021;-57
2022/10/18 01:59:11;;;;;;;3.10;1.98;;;;;;;25.20;42.18;101992.56;5035057;28;20029;-58
2022/10/18 02:01:47;;;;;;;3.38;2.03;;;;;;;25.24;42.02;101995.28;5035176;28;20026;-57
2022/10/18 02:04:23;;;;;;;2.53;1.73;;;;;;;25.25;42.06;101983.91;5033848;28;20041;-58
2022/10/18 02:06:57;;;;;;;2.58;1.90;;;;;;;25.26;41.76;101995.31;5017549;28;20026;-57
2022/10/18 02:09:37;;;;;;;2.42;2.00;;;;;;;25.21;41.97;101989.94;5017541;28;20475;-57
2022/10/18 02:12:06;;;;;;;3.60;1.90;;;;;;;25.25;42.00;101986.56;5033788;28;20038;-58
2022/10/18 02:14:35;;;;;;;2.15;1.67;;;;;;;25.25;41.91;101973.41;5033431;28;20060;-57
2022/10/18 02:17:06;;;;;;;5.22;2.22;;;;;;;25.22;41.61;101970.72;5034853;28;20030;-58
2022/10/18 02:19:37;;;;;;;4.15;1.92;;;;;;;25.28;41.68;101977.84;5017020;28;20026;-58
2022/10/18 02:22:07;;;;;;;1.85;1.40;;;;;;;25.27;41.69;101974.34;5034983;28;20459;-58
2022/10/18 02:24:42;;;;;;;1.75;1.40;;;;;;;25.25;41.76;101980.38;5034665;28;20029;-57
2022/10/18 02:27:11;;;;;;;1.85;1.40;;;;;;;25.26;42.01;101979.53;5017269;28;20368;-58
2022/10/18 02:29:40;;;;;;;1.92;1.52;;;;;;;25.30;41.74;101976.16;5034759;28;20060;-58
2022/10/18 02:32:28;;;;;;;2.30;1.88;;;;;;;25.31;41.78;101978.81;5016919;28;20083;-58
2022/10/18 02:35:01;;;;;;;2.70;1.50;;;;;;;25.33;41.45;101976.22;5031072;28;20479;-58
2022/10/18 02:37:33;;;;;;;1.92;1.38;;;;;;;25.27;41.59;101974.34;5017029;28;20463;-58
2022/10/18 02:40:03;;;;;;;1.85;1.30;;;;;;;25.25;41.75;101973.41;5016963;28;20498;-58
2022/10/18 02:42:38;;;;;;;1.92;1.50;;;;;;;25.24;41.71;101974.28;5034568;28;20030;-58
2022/10/18 02:45:07;;;;;;;1.48;1.27;;;;;;;25.29;41.68;101982.25;5034464;28;20386;-58
2022/10/18 02:47:36;;;;;;;1.38;1.23;;;;;;;25.29;41.56;101979.63;5034157;28;20435;-58
2022/10/18 02:50:05;;;;;;;2.08;1.50;;;;;;;25.29;41.35;101974.38;5034371;28;20468;-57
2022/10/18 02:52:33;;;;;;;3.35;1.60;;;;;;;25.30;41.33;101970.91;5034274;28;20026;-58
2022/10/18 02:55:02;;;;;;;1.52;1.30;;;;;;;25.26;41.45;101977.81;5034057;28;20438;-58
2022/10/18 02:57:30;;;;;;;1.75;1.10;;;;;;;25.27;41.57;101976.97;5016524;28;20033;-57
2022/10/18 02:59:59;;;;;;;4.10;1.42;;;;;;;25.27;41.33;101966.47;5034142;28;20048;-57
2022/10/18 03:02:27;;;;;;;1.40;1.10;;;;;;;25.22;41.75;101967.22;5033920;28;20033;-57
2022/10/18 03:04:56;;;;;;;3.90;1.40;;;;;;;25.18;41.68;101964.50;5034172;28;20087;-56
2022/10/18 03:07:25;;;;;;;1.50;1.20;;;;;;;25.24;41.74;101962.84;5032711;28;20465;-54
2022/10/18 03:09:53;;;;;;;1.77;1.30;;;;;;;25.30;41.26;101963.91;5033940;28;20021;-57
2022/10/18 03:12:22;;;;;;;1.95;1.40;;;;;;;25.25;41.63;101960.28;5033702;28;20029;-57
2022/10/18 03:14:50;;;;;;;1.48;1.10;;;;;;;25.29;41.62;101972.66;5033662;28;20034;-58
2022/10/18 03:17:19;;;;;;;1.60;1.17;;;;;;;25.30;41.54;101974.44;5033636;28;20029;-57
2022/10/18 03:19:46;;;;;;;1.55;1.10;;;;;;;25.30;41.53;101973.53;5033422;28;20049;-52
2022/10/18 03:22:15;;;;;;;1.20;0.80;;;;;;;25.31;41.38;101977.94;5033555;28;20033;-56
2022/10/18 03:24:44;;;;;;;1.35;1.08;;;;;;;25.31;41.30;101980.56;5033479;28;20029;-57
2022/10/18 03:27:12;;;;;;;1.30;0.90;;;;;;;25.30;41.21;101971.81;5033480;28;20127;-57
2022/10/18 03:29:41;;;;;;;1.85;1.00;;;;;;;25.28;41.35;101976.13;5033486;28;20513;-57
2022/10/18 03:32:09;;;;;;;1.08;0.98;;;;;;;25.23;41.61;101982.13;5033549;28;20033;-57
2022/10/18 03:34:38;;;;;;;1.00;0.90;;;;;;;25.24;41.58;101973.38;5016215;28;20037;-57
2022/10/18 03:37:06;;;;;;;4.25;1.30;;;;;;;25.30;41.46;101982.31;5015940;28;20026;-58
2022/10/18 03:39:35;;;;;;;1.33;1.00;;;;;;;25.27;41.37;101983.94;5033104;28;20048;-57
2022/10/18 03:42:03;;;;;;;5.13;0.90;;;;;;;25.23;41.44;101979.50;5033391;28;20100;-57
2022/10/18 03:44:31;;;;;;;1.70;1.23;;;;;;;25.24;41.56;101978.63;5032731;28;20467;-57
2022/10/18 03:47:00;;;;;;;0.80;0.80;;;;;;;25.19;41.82;101973.25;5033193;28;20037;-57
2022/10/18 03:49:28;;;;;;;1.52;1.00;;;;;;;25.21;41.52;101974.19;5033283;28;20100;-56
2022/10/18 03:51:57;;;;;;;0.93;0.80;;;;;;;25.20;41.45;101966.28;5033228;28;20021;-57
2022/10/18 03:54:25;;;;;;;1.13;0.80;;;;;;;25.22;41.43;101980.34;5033136;28;20036;-57
2022/10/18 03:56:54;;;;;;;1.38;0.77;;;;;;;25.20;41.35;101982.03;5033075;28;20537;-57
2022/10/18 03:59:22;;;;;;;1.10;0.90;;;;;;;25.27;41.50;101974.34;5033094;28;20472;-57
2022/10/18 04:01:51;;;;;;;1.00;0.90;;;;;;;25.28;41.32;101981.38;5032971;28;20037;-57
2022/10/18 04:04:20;;;;;;;1.60;0.70;;;;;;;25.27;41.21;101982.22;5033300;28;20092;-57
2022/10/18 04:06:49;;;;;;;0.93;0.82;;;;;;;25.26;41.60;101979.53;5033768;28;20116;-58
2022/10/18 04:09:17;;;;;;;0.70;0.57;;;;;;;25.29;41.38;101988.41;5033057;28;20414;-57
2022/10/18 04:11:46;;;;;;;1.17;0.68;;;;;;;25.29;41.57;101982.25;5033079;28;20021;-57
2022/10/18 04:14:14;;;;;;;1.10;0.93;;;;;;;25.26;41.32;101972.56;5032919;28;20029;-55
2022/10/18 04:16:43;;;;;;;2.00;0.73;;;;;;;25.26;41.29;101983.06;5033062;28;20032;-58
2022/10/18 04:19:11;;;;;;;2.78;0.75;;;;;;;25.21;41.57;101983.81;5032897;28;20494;-58
2022/10/18 04:21:39;;;;;;;1.50;0.90;;;;;;;25.22;41.37;101986.47;5032837;28;20124;-58
2022/10/18 04:24:08;;;;;;;1.23;0.90;;;;;;;25.23;41.48;101982.13;5032787;28;20096;-58
2022/10/18 04:26:37;;;;;;;2.55;0.80;;;;;;;25.21;41.50;101976.81;5032883;28;20030;-58
2022/10/18 04:29:05;;;;;;;1.20;0.98;;;;;;;25.21;41.40;101971.56;5032635;28;20116;-57
2022/10/18 04:31:34;;;;;;;1.30;0.70;;;;;;;25.26;41.34;101977.81;5032612;28;20383;-58
2022/10/18 04:34:03;;;;;;;1.63;0.75;;;;;;;25.12;41.23;101947.72;5032455;28;20033;-58
2022/10/18 04:36:32;;;;;;;1.33;0.80;;;;;;;25.21;41.05;101963.69;5032660;28;20040;-57
2022/10/18 04:39:00;;;;;;;1.08;0.90;;;;;;;25.24;41.33;101958.50;5032835;28;20026;-58
2022/10/18 04:41:29;;;;;;;0.90;0.77;;;;;;;25.27;41.11;101957.69;5032682;28;20053;-58
2022/10/18 04:43:57;;;;;;;1.73;0.77;;;;;;;25.20;41.42;101951.41;5032610;28;20025;-58
2022/10/18 04:46:26;;;;;;;1.38;0.82;;;;;;;25.21;41.51;101958.44;5032642;28;20095;-58
2022/10/18 04:48:54;;;;;;;1.30;0.70;;;;;;;25.24;41.56;101961.13;5032899;28;20486;-58
2022/10/18 04:51:23;;;;;;;1.10;0.70;;;;;;;25.16;41.52;101954.81;5032501;28;20402;-58
2022/10/18 04:53:51;;;;;;;0.70;0.63;;;;;;;25.19;41.31;101962.75;5032527;28;20112;-58
2022/10/18 04:56:20;;;;;;;1.08;0.70;;;;;;;25.22;41.44;101954.97;5035670;28;20037;-58
2022/10/18 04:58:48;;;;;;;0.98;0.63;;;;;;;25.23;41.28;101948.84;5036249;28;20087;-57
2022/10/18 05:01:17;;;;;;;3.22;0.70;;;;;;;25.24;41.46;101955.88;5036816;28;20021;-56
2022/10/18 05:03:46;;;;;;;3.28;0.80;;;;;;;25.25;41.34;101952.41;5036064;28;20021;-56
2022/10/18 05:06:15;;;;;;;0.70;0.70;;;;;;;25.20;41.47;101953.16;5036362;28;20131;-56
2022/10/18 05:08:43;;;;;;;1.50;0.93;;;;;;;25.19;41.31;101947.00;5036127;28;20475;-56
2022/10/18 05:11:12;;;;;;;2.25;0.70;;;;;;;25.19;41.49;101954.88;5035927;28;20030;-57
2022/10/18 05:13:40;;;;;;;0.75;0.40;;;;;;;25.18;41.24;101954.00;5018541;28;20083;-56
2022/10/18 05:16:09;;;;;;;1.20;0.40;;;;;;;25.17;41.41;101943.44;5035959;28;20476;-58
2022/10/18 05:18:38;;;;;;;0.77;0.40;;;;;;;25.18;41.50;101954.00;5036194;28;20035;-57
2022/10/18 05:21:06;;;;;;;3.00;0.70;;;;;;;25.15;41.20;101948.69;5035677;28;20065;-56
2022/10/18 05:23:35;;;;;;;1.77;0.60;;;;;;;25.19;41.34;101947.00;5035846;28;20025;-56
2022/10/18 05:26:05;;;;;;;1.27;0.80;;;;;;;25.18;41.42;101950.47;5035871;28;20105;-57
2022/10/18 05:28:34;;;;;;;1.77;0.80;;;;;;;25.17;41.30;101954.84;5035647;28;20035;-56
2022/10/18 05:31:03;;;;;;;1.05;0.70;;;;;;;25.20;41.26;101953.16;5035898;28;20486;-53
2022/10/18 05:33:32;;;;;;;1.23;0.60;;;;;;;25.21;41.31;101957.56;5035628;28;20467;-57
2022/10/18 05:36:01;;;;;;;1.55;0.90;;;;;;;25.15;41.28;101943.44;5035418;28;20021;-56
2022/10/18 05:38:30;;;;;;;1.25;0.55;;;;;;;25.20;41.30;101951.41;5035686;28;20045;-57
2022/10/18 05:40:59;;;;;;;0.77;0.50;;;;;;;25.15;41.21;101943.44;5035697;28;20033;-56
2022/10/18 05:43:29;;;;;;;1.42;0.80;;;;;;;25.11;41.53;101931.06;5035449;28;20467;-57
2022/10/18 05:45:57;;;;;;;1.05;0.77;;;;;;;25.17;41.06;101930.31;5035554;28;20029;-57
2022/10/18 05:48:26;;;;;;;0.80;0.63;;;;;;;25.20;41.10;101929.53;5035199;28;20032;-56
2022/10/18 05:50:54;;;;;;;3.08;0.57;;;;;;;25.22;41.09;101928.69;5035238;28;20132;-57
2022/10/18 05:53:22;;;;;;;0.82;0.40;;;;;;;25.20;41.10;101919.91;5035212;28;20038;-57
2022/10/18 05:55:51;;;;;;;0.75;0.57;;;;;;;25.19;41.21;101918.13;5035278;28;20041;-55
2022/10/18 05:58:19;;;;;;;0.85;0.60;;;;;;;25.15;41.60;101916.31;5035333;28;20117;-53
2022/10/18 06:00:48;;;;;;;0.60;0.50;;;;;;;25.16;41.04;101913.69;5035096;28;20115;-57
2022/10/18 06:03:17;;;;;;;1.30;0.80;;;;;;;25.19;41.23;101912.88;5035445;28;20363;-57
2022/10/18 06:05:44;;;;;;;0.68;0.57;;;;;;;25.21;41.05;101916.41;5034980;28;20033;-56
2022/10/18 06:08:12;;;;;;;0.88;0.70;;;;;;;25.25;40.80;101912.13;5034424;28;20026;-58
2022/10/18 06:10:41;;;;;;;1.75;0.80;;;;;;;25.26;40.73;101911.25;5035114;28;20068;-57
2022/10/18 06:13:09;;;;;;;1.15;0.63;;;;;;;25.18;41.25;101912.00;5034824;28;20057;-57
2022/10/18 06:15:36;;;;;;;2.42;0.75;;;;;;;25.16;41.04;101912.78;5017343;28;20510;-57
2022/10/18 06:18:05;;;;;;;2.35;0.90;;;;;;;25.14;41.13;101907.53;5035188;28;20018;-57
2022/10/18 06:20:34;;;;;;;2.10;0.90;;;;;;;25.14;41.47;101917.16;5034577;28;20064;-57
2022/10/18 06:23:02;;;;;;;0.95;0.77;;;;;;;25.10;41.22;101918.78;5034656;28;20125;-57
2022/10/18 06:25:30;;;;;;;1.58;0.80;;;;;;;25.14;41.49;101925.03;5034592;28;20022;-57
2022/10/18 06:27:59;;;;;;;1.92;1.13;;;;;;;25.15;41.24;101922.41;5034715;28;20021;-58
2022/10/18 06:30:27;;;;;;;1.85;1.10;;;;;;;25.16;41.51;101928.53;5034681;28;20050;-57
2022/10/18 06:33:00;;;;;;;1.50;0.82;;;;;;;25.20;40.99;101940.03;5034400;28;20025;-56
2022/10/18 06:35:29;;;;;;;1.45;1.00;;;;;;;25.20;41.15;101938.28;5017419;28;20477;-58
2022/10/18 06:37:57;;;;;;;1.27;0.90;;;;;;;25.18;41.11;101943.50;5034578;28;20034;-58
2022/10/18 06:40:26;;;;;;;2.17;1.35;;;;;;;25.21;41.05;101942.69;5034451;28;20135;-58
2022/10/18 06:42:54;;;;;;;1.65;1.10;;;;;;;25.29;41.19;101950.72;5032201;28;20682;-57
2022/10/18 06:45:23;;;;;;;1.05;0.90;;;;;;;25.26;41.13;101945.41;5034596;28;20041;-58
2022/10/18 06:47:52;;;;;;;1.98;1.08;;;;;;;25.25;40.98;101949.78;5034573;28;20096;-58
2022/10/18 06:50:20;;;;;;;5.47;1.13;;;;;;;25.22;41.19;101947.09;5033748;28;20029;-58
2022/10/18 06:52:50;;;;;;;1.67;1.10;;;;;;;25.18;41.37;101938.25;5032695;28;20049;-57
2022/10/18 06:55:18;;;;;;;3.70;0.90;;;;;;;25.16;41.53;101939.03;5016033;28;20025;-57
2022/10/18 06:57:47;;;;;;;1.98;1.20;;;;;;;25.17;41.57;101940.81;5034101;28;20021;-58
2022/10/18 07:00:16;;;;;;;2.97;1.10;;;;;;;25.17;41.20;101941.72;5034480;28;20546;-57
2022/10/18 07:02:45;;;;;;;2.05;1.05;;;;;;;25.15;41.27;101940.81;5033545;28;20032;-55
2022/10/18 07:05:13;;;;;;;2.83;1.00;;;;;;;25.17;41.36;101938.19;5033935;28;20022;-57
2022/10/18 07:07:42;;;;;;;1.77;0.88;;;;;;;25.14;41.27;101936.41;5033544;28;20037;-55
2022/10/18 07:10:09;;;;;;;2.00;0.98;;;;;;;25.15;41.38;101935.56;5033912;28;20030;-57
2022/10/18 07:12:38;;;;;;;1.80;0.90;;;;;;;25.15;41.15;101929.44;5033701;28;20026;-56
2022/10/18 07:15:07;;;;;;;1.73;1.00;;;;;;;25.12;41.63;101926.72;5033485;28;20463;-54
2022/10/18 07:17:35;;;;;;;2.03;0.90;;;;;;;25.13;41.32;101921.50;5033573;28;20506;-56
2022/10/18 07:20:04;;;;;;;1.85;1.05;;;;;;;25.18;41.16;101927.75;5033223;28;20045;-57
2022/10/18 07:22:32;;;;;;;1.70;1.00;;;;;;;25.15;41.30;101925.03;5033504;28;20104;-54
2022/10/18 07:25:01;;;;;;;1.10;0.90;;;;;;;25.16;41.41;101918.94;5033529;28;20461;-54
2022/10/18 07:27:29;;;;;;;1.60;1.02;;;;;;;25.17;41.27;101927.69;5033684;28;20159;-55
2022/10/18 07:29:58;;;;;;;2.63;1.15;;;;;;;25.14;41.23;101936.41;5015728;28;20026;-57
2022/10/18 07:32:27;;;;;;;1.77;0.80;;;;;;;25.12;41.47;101932.84;5033540;28;20034;-56
2022/10/18 07:34:56;;;;;;;1.30;0.90;;;;;;;25.17;41.47;101935.56;5033297;28;20033;-57
2022/10/18 07:37:24;;;;;;;7.68;1.20;;;;;;;25.14;41.50;101941.66;5033631;28;20026;-57
2022/10/18 07:39:53;;;;;;;0.63;0.60;;;;;;;25.15;41.15;101938.19;5033246;28;20032;-57
2022/10/18 07:42:21;;;;;;;1.67;0.90;;;;;;;25.17;41.19;101940.81;5033235;28;20033;-56
2022/10/18 07:44:50;;;;;;;1.92;0.90;;;;;;;25.17;41.27;101936.47;5033026;28;20029;-56
2022/10/18 07:47:19;;;;;;;1.52;0.75;;;;;;;25.18;41.15;101943.50;5032924;28;20030;-57
2022/10/18 07:49:48;;;;;;;1.13;0.85;;;;;;;25.14;41.67;101933.78;5033682;28;20033;-57
2022/10/18 07:52:16;;;;;;;2.92;0.90;;;;;;;25.14;41.36;101940.78;5032952;28;20025;-57
2022/10/18 07:54:45;;;;;;;1.27;0.63;;;;;;;25.17;41.26;101938.19;5032919;28;20029;-54
2022/10/18 07:57:13;;;;;;;1.30;0.65;;;;;;;25.13;41.28;101941.63;5033267;28;20390;-58
2022/10/18 07:59:45;;;;;;;1.20;0.95;;;;;;;25.16;41.58;101950.47;5032932;28;20033;-57
2022/10/18 08:02:13;;;;;;;1.13;0.80;;;;;;;25.12;41.45;101952.97;5015702;28;20458;-56
2022/10/18 08:04:42;;;;;;;1.40;0.80;;;;;;;25.16;41.35;101949.56;5033234;28;20482;-57
2022/10/18 08:07:10;;;;;;;1.45;0.98;;;;;;;25.16;41.41;101949.56;5032926;28;20065;-57
2022/10/18 08:09:40;;;;;;;3.83;1.00;;;;;;;25.14;41.32;101957.41;5032943;28;20430;-57
2022/10/18 08:12:08;;;;;;;2.88;1.23;;;;;;;25.11;41.45;101952.06;5032799;28;20399;-57
2022/10/18 08:14:37;;;;;;;1.52;0.80;;;;;;;25.14;41.13;101943.41;5032268;28;20107;-55
2022/10/18 08:17:05;;;;;;;1.15;0.70;;;;;;;25.14;41.43;101940.78;5015698;28;20045;-56
2022/10/18 08:19:33;;;;;;;1.13;0.73;;;;;;;25.16;41.46;101933.78;5032541;28;20382;-58
2022/10/18 08:22:02;;;;;;;1.10;0.80;;;;;;;25.17;41.06;101946.97;5014836;28;20030;-57
2022/10/18 08:24:30;;;;;;;3.90;0.80;;;;;;;25.13;41.29;101945.13;5032810;28;20430;-57
2022/10/18 08:26:59;;;;;;;4.57;0.80;;;;;;;25.15;41.18;101947.81;5032461;28;20029;-57
2022/10/18 08:29:28;;;;;;;0.93;0.50;;;;;;;25.15;41.35;101937.31;5032951;28;20048;-57
2022/10/18 08:31:56;;;;;;;1.67;1.00;;;;;;;25.18;41.43;101943.50;5036601;28;20471;-57
2022/10/18 08:34:25;;;;;;;2.63;1.00;;;;;;;25.16;41.17;101933.78;5036640;28;20056;-58
2022/10/18 08:36:53;;;;;;;1.85;0.90;;;;;;;25.20;41.24;101935.66;5036583;28;20471;-56
2022/10/18 08:39:22;;;;;;;2.22;0.80;;;;;;;25.19;41.60;101941.75;5036449;28;20041;-56
2022/10/18 08:42:11;;;;;;;1.08;0.70;;;;;;;25.19;41.15;101949.63;5036633;28;20363;-58
2022/10/18 08:44:47;;;;;;;1.35;0.68;;;;;;;25.12;41.42;101934.59;5029353;28;20034;-57
2022/10/18 08:47:19;;;;;;;1.92;0.73;;;;;;;25.12;41.63;101943.34;5036722;28;20032;-57
2022/10/18 08:49:51;;;;;;;1.83;0.70;;;;;;;25.14;41.49;101946.03;5018823;28;20104;-57
2022/10/18 08:52:50;;;;;;;0.60;0.60;;;;;;;25.15;41.56;101947.81;5018823;28;20034;-58
2022/10/18 08:55:38;;;;;;;1.42;0.88;;;;;;;25.18;41.51;101945.22;5036435;28;20034;-57
2022/10/18 08:58:26;;;;;;;0.80;0.55;;;;;;;25.14;41.49;101946.91;5016084;28;20038;-56
2022/10/18 09:01:17;;;;;;;0.93;0.60;;;;;;;25.15;41.69;101935.56;5036815;28;20114;-56
2022/10/18 09:03:54;;;;;;;1.70;0.88;;;;;;;25.17;41.27;101936.47;5030013;28;20107;-54
2022/10/18 09:06:30;;;;;;;1.50;0.80;;;;;;;25.19;41.53;101944.38;5036073;28;20037;-55
2022/10/18 09:09:18;;;;;;;2.05;0.98;;;;;;;25.12;41.70;101939.84;5018711;28;20022;-57
2022/10/18 09:11:54;;;;;;;2.10;1.02;;;;;;;25.13;41.63;101933.75;5029190;28;20053;-57
2022/10/18 09:14:30;;;;;;;1.48;0.73;;;;;;;25.18;41.21;101938.25;5035748;28;20112;-55
2022/10/18 09:17:16;;;;;;;1.27;0.70;;;;;;;25.14;41.65;101930.28;5036075;28;20026;-57
2022/10/18 09:19:56;;;;;;;1.23;0.70;;;;;;;25.13;41.68;101928.50;5035741;28;20030;-55
2022/10/18 09:22:49;;;;;;;2.10;1.02;;;;;;;25.14;41.62;101922.41;5018027;28;20037;-57
2022/10/18 09:25:37;;;;;;;2.35;1.00;;;;;;;25.17;41.50;101914.56;5026984;28;20040;-57
2022/10/18 09:28:15;;;;;;;1.35;0.70;;;;;;;25.16;41.54;101923.28;5035542;28;20441;-54
2022/10/18 09:30:50;;;;;;;1.60;0.90;;;;;;;25.15;41.69;101916.31;5001966;28;20079;-57
2022/10/18 09:33:28;;;;;;;2.00;1.00;;;;;;;25.20;41.39;101913.78;5035550;28;20030;-57
2022/10/18 09:36:01;;;;;;;1.17;0.70;;;;;;;25.20;41.41;101919.91;5035514;28;20048;-57
2022/10/18 09:38:33;;;;;;;2.38;0.73;;;;;;;25.23;41.70;101924.34;5017676;28;20033;-56
2022/10/18 09:41:07;;;;;;;3.65;0.85;;;;;;;25.22;41.72;101922.56;5017743;28;20051;-56
2022/10/18 09:43:51;;;;;;;1.92;0.70;;;;;;;25.20;41.83;101927.78;5001098;28;20430;-57
2022/10/18 09:46:21;;;;;;;1.52;0.80;;;;;;;25.22;41.53;101923.44;5035363;28;20025;-57
2022/10/18 09:48:55;;;;;;;2.50;1.38;;;;;;;25.25;41.85;101925.25;5002212;28;20026;-57
2022/10/18 09:51:28;;;;;;;1.00;0.68;;;;;;;25.24;41.58;101921.75;5035502;28;20076;-58
2022/10/18 09:54:03;;;;;;;1.92;1.15;;;;;;;25.27;41.60;101918.28;5017834;28;20033;-57
2022/10/18 09:56:32;;;;;;;;;;;;;;;25.30;41.74;101918.38;5035580;28;20099;-57
2022/10/18 09:59:01;;;;;;;2.38;0.90;;;;;;;25.33;41.82;101921.06;5017472;28;19912;-56
2022/10/18 10:01:31;;;;;;;1.77;0.63;;;;;;;25.34;41.81;101912.34;5035301;28;20079;-58
2022/10/18 10:04:00;;;;;;;2.90;0.80;;;;;;;25.34;41.63;101909.72;5034538;28;20014;-57
2022/10/18 10:06:33;;;;;;;2.47;0.80;;;;;;;25.30;41.74;101897.34;5035073;28;20026;-56
2022/10/18 10:09:25;;;;;;;1.58;0.65;;;;;;;25.32;41.68;101888.66;5034896;28;20025;-57
2022/10/18 10:11:54;;;;;;;2.47;0.60;;;;;;;25.43;41.29;101883.66;5030944;28;20034;-56
2022/10/18 10:14:26;;;;;;;2.72;1.00;;;;;;;25.39;41.37;101873.94;5035047;28;20069;-57
2022/10/18 10:16:55;;;;;;;3.95;0.93;;;;;;;25.41;41.80;101880.09;5017453;28;20051;-57
2022/10/18 10:19:27;;;;;;;1.90;0.75;;;;;;;25.43;41.46;101880.16;5034613;28;20387;-58
2022/10/18 10:21:59;;;;;;;2.25;1.00;;;;;;;25.39;41.90;101883.53;5034536;28;20048;-56
2022/10/18 10:24:37;;;;;;;1.58;0.98;;;;;;;25.45;41.74;101884.59;5016872;28;20112;-58
2022/10/18 10:27:07;;;;;;;2.42;1.20;;;;;;;25.47;41.97;101897.78;5034386;28;20030;-57
2022/10/18 10:29:56;;;;;;;1.33;0.90;;;;;;;25.43;41.84;101907.31;5034340;28;20116;-56
2022/10/18 10:32:27;;;;;;;2.45;1.13;;;;;;;25.44;42.04;101895.06;5034676;28;20028;-57
2022/10/18 10:34:55;;;;;;;1.60;0.82;;;;;;;25.41;42.07;101898.47;5016926;28;20037;-56
2022/10/18 10:37:31;;;;;;;1.70;0.77;;;;;;;25.41;42.09;101894.97;5034631;28;20026;-58
2022/10/18 10:40:09;;;;;;;2.40;1.13;;;;;;;25.48;41.71;101897.78;5034278;28;20183;-58
2022/10/18 10:43:08;;;;;;;2.13;0.90;;;;;;;25.38;41.86;101876.50;5017260;28;20037;-57
2022/10/18 10:45:55;;;;;;;2.58;0.93;;;;;;;25.49;41.75;101890.78;5034390;28;20033;-56
2022/10/18 10:48:24;;;;;;;1.88;1.00;;;;;;;25.53;41.75;101894.38;5034031;28;20026;-58
2022/10/18 10:51:11;;;;;;;1.83;0.95;;;;;;;25.50;42.06;101876.78;5033811;28;20029;-58
2022/10/18 10:53:44;;;;;;;1.17;0.95;;;;;;;25.54;42.12;101864.63;5033367;28;20391;-58
2022/10/18 10:56:18;;;;;;;1.50;0.82;;;;;;;25.51;42.16;101854.94;5034033;28;20038;-57
2022/10/18 10:58:47;;;;;;;2.97;0.70;;;;;;;25.46;42.19;101848.72;5016640;28;20026;-58
2022/10/18 11:01:22;;;;;;;2.83;1.02;;;;;;;25.52;42.16;101866.34;5034315;28;20076;-56
2022/10/18 11:03:53;;;;;;;3.40;0.80;;;;;;;25.47;41.98;101853.13;5033786;28;20029;-57
2022/10/18 11:06:43;;;;;;;1.63;0.47;;;;;;;25.47;42.30;101846.09;5033939;28;20033;-56
2022/10/18 11:09:27;;;;;;;2.50;0.90;;;;;;;25.45;42.37;101846.94;5000198;28;20509;-57
2022/10/18 11:12:05;;;;;;;2.83;0.88;;;;;;;25.46;42.42;101851.34;5033937;28;20104;-56
2022/10/18 11:14:39;;;;;;;2.50;1.05;;;;;;;25.46;42.50;101854.84;5033584;28;20033;-52
2022/10/18 11:17:13;;;;;;;2.33;0.85;;;;;;;25.50;42.53;101857.53;5033935;28;20025;-53
2022/10/18 11:20:00;;;;;;;1.47;0.87;;;;;;;25.52;42.27;101859.31;5032408;28;20427;-57
2022/10/18 11:22:33;;;;;;;1.67;0.90;;;;;;;25.53;42.41;101854.97;5004645;28;20092;-56
2022/10/18 11:25:04;;;;;;;1.52;0.80;;;;;;;25.42;42.49;101842.50;5013965;28;20064;-57
2022/10/18 11:27:56;;;;;;;2.45;0.70;;;;;;;25.48;42.45;101866.28;5013804;28;20503;-58
2022/10/18 11:30:44;;;;;;;3.38;1.10;;;;;;;25.46;42.58;101865.34;5013671;28;20036;-57
2022/10/18 11:33:37;;;;;;;2.08;0.93;;;;;;;25.41;42.31;101848.56;5013446;28;20498;-57
2022/10/18 11:36:13;;;;;;;1.88;0.95;;;;;;;25.47;42.52;101856.63;5010120;28;20125;-57
2022/10/18 11:38:53;;;;;;;1.20;0.75;;;;;;;25.32;42.57;101827.38;5012395;28;20029;-57
2022/10/18 11:41:25;;;;;;;4.43;0.93;;;;;;;25.45;42.74;101842.56;5013929;28;20040;-57
2022/10/18 11:43:56;;;;;;;1.20;0.75;;;;;;;25.50;43.01;101839.16;5013482;28;20030;-56
2022/10/18 11:46:50;;;;;;;1.85;0.73;;;;;;;25.50;42.71;101834.75;5012042;28;20065;-57